Time;durP1;ratioP1;P1;durP2;ratioP2;P2;SDS_P1;SDS_P2;PMS_P1;PMS_P2;Temp;Humidity;BMP_temperature;BMP_pressure;BME280_temperature;BME280_humidity;BME280_pressure;Samples;Min_cycle;Max_cycle;Signal;HPM_P1;HPM_P2
2023/05/19 04:39:43;;;;;;;26.23;21.50;;;;;;;;;;5012639;23;20070;-83
2023/05/19 04:42:10;;;;;;;24.08;21.38;;;;;;;;;;5004541;28;20089;-81
2023/05/19 04:44:40;;;;;;;23.50;21.10;;;;;;;;;;5002374;28;20143;-81
2023/05/19 04:49:55;;;;;;;29.50;21.80;;;;;;;;;;4995341;28;20060;-82
2023/05/19 04:52:22;;;;;;;24.35;21.48;;;;;;;;;;5001084;28;20045;-83
2023/05/19 04:54:50;;;;;;;25.50;22.67;;;;;;;;;;5006967;28;20037;-83
2023/05/19 04:57:18;;;;;;;25.17;21.38;;;;;;;;;;4983168;28;20082;-82
2023/05/19 05:00:12;;;;;;;23.08;20.52;;;;;;;;;;5003669;28;20500;-85
2023/05/19 05:02:37;;;;;;;25.27;21.17;;;;;;;;;;4991929;28;20034;-80
2023/05/19 05:05:12;;;;;;;24.23;20.60;;;;;;;;;;5004743;28;20025;-79
2023/05/19 05:10:31;;;;;;;23.67;20.98;;;;;;;;;;5121680;23;20054;-81
2023/05/19 05:12:56;;;;;;;24.27;21.48;;;;;;;;;;5011881;28;20113;-78
2023/05/19 05:15:23;;;;;;;23.95;20.85;;;;;;;;;;5018542;28;20056;-79
2023/05/19 05:17:49;;;;;;;26.02;21.55;;;;;;;;;;5017144;28;20006;-81
2023/05/19 05:20:15;;;;;;;24.23;21.30;;;;;;;;;;5021579;28;20016;-79
2023/05/19 05:22:41;;;;;;;24.85;22.17;;;;;;;;;;4989367;28;20528;-79
2023/05/19 05:25:06;;;;;;;23.73;21.33;;;;;;;;;;4991668;28;20452;-84
2023/05/19 05:27:32;;;;;;;22.33;19.60;;;;;;;;;;5001742;28;20021;-81
2023/05/19 05:29:57;;;;;;;18.77;16.88;;;;;;;;;;5001567;28;20037;-77
2023/05/19 05:32:22;;;;;;;19.60;17.35;;;;;;;;;;5002078;28;20028;-80
2023/05/19 05:34:48;;;;;;;17.23;15.33;;;;;;;;;;5000839;28;20099;-81
2023/05/19 05:37:13;;;;;;;15.52;14.07;;;;;;;;;;5000324;28;20351;-81
2023/05/19 05:39:39;;;;;;;15.13;13.93;;;;;;;;;;5000754;28;20050;-80
2023/05/19 05:42:04;;;;;;;14.60;13.40;;;;;;;;;;5016611;28;20277;-80
2023/05/19 05:44:29;;;;;;;14.68;13.55;;;;;;;;;;5015785;28;20026;-82
2023/05/19 05:46:55;;;;;;;14.53;13.33;;;;;;;;;;5001719;28;20029;-81
2023/05/19 05:49:20;;;;;;;13.90;12.10;;;;;;;;;;5001162;28;20476;-82
2023/05/19 05:51:46;;;;;;;14.07;12.95;;;;;;;;;;5000737;28;20030;-80
2023/05/19 05:54:12;;;;;;;13.27;12.13;;;;;;;;;;4983803;28;20029;-86
2023/05/19 05:56:37;;;;;;;12.98;11.82;;;;;;;;;;4982566;28;20103;-82
2023/05/19 05:59:03;;;;;;;12.85;11.57;;;;;;;;;;4986931;28;20662;-81
2023/05/19 06:01:31;;;;;;;14.10;12.75;;;;;;;;;;4987903;28;20020;-81
2023/05/19 06:03:56;;;;;;;12.45;11.55;;;;;;;;;;5000917;28;20032;-80
2023/05/19 06:06:22;;;;;;;12.70;11.70;;;;;;;;;;4999362;28;20475;-79
2023/05/19 06:08:47;;;;;;;14.57;13.10;;;;;;;;;;5000354;28;20514;-83
2023/05/19 06:11:12;;;;;;;12.98;11.90;;;;;;;;;;4992872;28;20313;-83
2023/05/19 06:13:40;;;;;;;12.30;11.20;;;;;;;;;;4996958;28;20021;-80
2023/05/19 06:16:05;;;;;;;13.07;11.80;;;;;;;;;;4990041;28;20857;-80
2023/05/19 06:18:31;;;;;;;14.43;13.18;;;;;;;;;;4991852;28;20026;-79
2023/05/19 06:20:56;;;;;;;14.13;12.98;;;;;;;;;;4991453;28;20021;-81
2023/05/19 06:23:22;;;;;;;14.30;13.10;;;;;;;;;;4993130;28;20036;-78
2023/05/19 06:25:48;;;;;;;13.55;12.40;;;;;;;;;;4991723;28;20018;-83
2023/05/19 06:28:13;;;;;;;19.17;17.00;;;;;;;;;;4993589;28;20137;-83
2023/05/19 06:30:38;;;;;;;13.20;11.93;;;;;;;;;;5000589;28;20045;-77
2023/05/19 06:33:04;;;;;;;12.77;11.50;;;;;;;;;;4988046;28;20105;-82
2023/05/19 06:35:30;;;;;;;11.83;11.03;;;;;;;;;;4998178;28;20292;-83
2023/05/19 06:37:55;;;;;;;12.43;11.52;;;;;;;;;;4999185;28;20022;-81
2023/05/19 06:40:21;;;;;;;11.35;10.45;;;;;;;;;;4998110;28;20495;-83
2023/05/19 06:42:46;;;;;;;10.43;9.73;;;;;;;;;;4980782;28;20065;-82
2023/05/19 06:45:12;;;;;;;11.73;10.82;;;;;;;;;;5000230;28;20033;-80
2023/05/19 06:47:37;;;;;;;11.93;11.07;;;;;;;;;;4993530;28;20022;-84
2023/05/19 06:50:02;;;;;;;12.27;11.30;;;;;;;;;;4993824;28;20092;-83
2023/05/19 06:52:28;;;;;;;11.77;10.65;;;;;;;;;;5000213;28;20265;-79
2023/05/19 06:54:53;;;;;;;13.00;12.00;;;;;;;;;;5000655;28;20034;-81
2023/05/19 06:57:18;;;;;;;14.35;12.60;;;;;;;;;;5000304;28;20276;-78
2023/05/19 06:59:45;;;;;;;13.63;12.43;;;;;;;;;;5000502;28;20092;-78
2023/05/19 07:02:10;;;;;;;13.60;12.25;;;;;;;;;;4996663;28;20846;-78
2023/05/19 07:04:36;;;;;;;12.95;11.95;;;;;;;;;;5000821;28;20029;-78
2023/05/19 07:07:01;;;;;;;12.95;11.85;;;;;;;;;;5000529;28;20022;-79
2023/05/19 07:09:27;;;;;;;13.30;11.25;;;;;;;;;;4996047;28;20132;-79
2023/05/19 07:11:52;;;;;;;11.43;10.63;;;;;;;;;;4999762;28;20053;-78
2023/05/19 07:14:17;;;;;;;12.00;10.93;;;;;;;;;;4998354;28;20782;-78
2023/05/19 07:16:43;;;;;;;12.20;11.10;;;;;;;;;;5000021;28;20079;-79
2023/05/19 07:19:08;;;;;;;11.32;10.35;;;;;;;;;;5000477;28;21039;-78
2023/05/19 07:21:33;;;;;;;15.18;10.57;;;;;;;;;;5000080;28;20084;-79
2023/05/19 07:23:59;;;;;;;11.30;8.90;;;;;;;;;;5015315;28;20120;-79
2023/05/19 07:26:25;;;;;;;10.20;9.27;;;;;;;;;;4999432;28;20018;-79
2023/05/19 07:28:50;;;;;;;11.40;10.50;;;;;;;;;;4999214;28;20022;-76
2023/05/19 07:31:16;;;;;;;10.65;9.63;;;;;;;;;;4999640;28;20359;-78
2023/05/19 07:33:41;;;;;;;9.65;8.85;;;;;;;;;;4993685;28;20022;-78
2023/05/19 07:36:06;;;;;;;10.90;9.87;;;;;;;;;;4993837;28;20026;-82
2023/05/19 07:38:33;;;;;;;11.43;10.38;;;;;;;;;;4999553;28;20731;-80
2023/05/19 07:40:59;;;;;;;11.30;10.20;;;;;;;;;;4999037;28;20112;-79
2023/05/19 07:43:24;;;;;;;9.73;9.02;;;;;;;;;;4997636;28;20540;-81
2023/05/19 07:45:50;;;;;;;11.35;9.75;;;;;;;;;;5001298;28;20025;-78
2023/05/19 07:48:17;;;;;;;11.70;10.52;;;;;;;;;;5000797;28;20030;-79
2023/05/19 07:50:42;;;;;;;10.32;9.35;;;;;;;;;;5002027;28;20495;-77
2023/05/19 07:53:08;;;;;;;9.77;8.85;;;;;;;;;;5001259;28;20324;-81
2023/05/19 07:55:33;;;;;;;9.80;9.10;;;;;;;;;;5001183;28;20030;-78
2023/05/19 07:57:58;;;;;;;9.73;8.90;;;;;;;;;;5002025;28;20264;-80
2023/05/19 08:00:24;;;;;;;10.02;9.13;;;;;;;;;;5002280;28;20645;-78
2023/05/19 08:02:49;;;;;;;9.77;8.75;;;;;;;;;;5002055;28;20085;-80
2023/05/19 08:05:14;;;;;;;9.63;8.60;;;;;;;;;;4991363;28;20014;-76
2023/05/19 08:07:40;;;;;;;9.95;9.05;;;;;;;;;;4992546;28;20272;-77
2023/05/19 08:10:05;;;;;;;10.13;9.25;;;;;;;;;;4992488;28;20133;-77
2023/05/19 08:12:31;;;;;;;9.35;8.65;;;;;;;;;;4996290;28;20026;-80
2023/05/19 08:14:56;;;;;;;8.90;8.10;;;;;;;;;;5003878;28;20026;-79
2023/05/19 08:17:22;;;;;;;10.43;9.30;;;;;;;;;;5000506;28;20017;-78
2023/05/19 08:19:47;;;;;;;10.25;9.30;;;;;;;;;;4993016;28;20503;-79
2023/05/19 08:22:12;;;;;;;10.50;9.18;;;;;;;;;;5001033;28;20443;-78
2023/05/19 08:24:38;;;;;;;10.13;9.32;;;;;;;;;;5001607;28;20408;-82
2023/05/19 08:27:03;;;;;;;10.57;8.75;;;;;;;;;;5001638;28;20030;-80
2023/05/19 08:29:29;;;;;;;10.13;8.70;;;;;;;;;;4997926;28;20021;-80
2023/05/19 08:31:54;;;;;;;9.70;8.88;;;;;;;;;;4996812;28;20026;-79
2023/05/19 08:34:19;;;;;;;10.23;9.25;;;;;;;;;;4998598;28;20079;-77
2023/05/19 08:36:46;;;;;;;10.27;9.17;;;;;;;;;;5000719;28;20025;-82
2023/05/19 08:39:12;;;;;;;11.55;8.57;;;;;;;;;;5000565;28;20564;-77
2023/05/19 08:41:38;;;;;;;9.40;8.60;;;;;;;;;;4998506;28;20022;-78
2023/05/19 08:44:03;;;;;;;9.77;8.82;;;;;;;;;;5000630;28;20084;-79
2023/05/19 08:46:29;;;;;;;10.23;9.30;;;;;;;;;;4991034;28;20101;-78
2023/05/19 08:48:58;;;;;;;10.68;9.73;;;;;;;;;;4987618;28;20089;-79
2023/05/19 08:51:32;;;;;;;10.20;9.40;;;;;;;;;;4997679;28;20030;-76
2023/05/19 08:54:02;;;;;;;10.40;9.30;;;;;;;;;;5000205;28;20030;-79
2023/05/19 08:56:27;;;;;;;10.23;9.32;;;;;;;;;;4993011;28;20054;-82
2023/05/19 08:58:55;;;;;;;10.30;9.40;;;;;;;;;;4994375;28;20116;-79
2023/05/19 09:01:21;;;;;;;10.43;9.38;;;;;;;;;;5016332;28;20022;-79
2023/05/19 09:03:48;;;;;;;11.18;10.02;;;;;;;;;;4997827;28;20049;-78
2023/05/19 09:06:13;;;;;;;11.32;10.23;;;;;;;;;;5015367;28;20034;-77
2023/05/19 09:08:39;;;;;;;9.70;8.90;;;;;;;;;;4990995;28;20051;-77
2023/05/19 09:11:05;;;;;;;14.93;9.43;;;;;;;;;;5015531;28;20045;-76
2023/05/19 09:13:30;;;;;;;10.95;9.90;;;;;;;;;;4999050;28;20080;-77
2023/05/19 09:15:56;;;;;;;11.57;9.38;;;;;;;;;;4992213;28;20468;-79
2023/05/19 09:18:22;;;;;;;10.48;9.68;;;;;;;;;;4981578;28;20018;-79
2023/05/19 09:20:48;;;;;;;10.60;9.60;;;;;;;;;;4996290;28;20014;-79
2023/05/19 09:23:14;;;;;;;13.37;9.33;;;;;;;;;;5000035;28;20392;-78
2023/05/19 09:25:47;;;;;;;9.75;8.85;;;;;;;;;;5000005;28;20261;-81
2023/05/19 09:28:12;;;;;;;11.23;10.18;;;;;;;;;;5000042;28;20033;-81
2023/05/19 09:30:38;;;;;;;14.10;8.90;;;;;;;;;;5000262;28;20451;-81
2023/05/19 09:33:07;;;;;;;9.98;9.07;;;;;;;;;;4998646;28;20029;-85
2023/05/19 09:35:33;;;;;;;10.45;9.13;;;;;;;;;;4999559;28;20098;-78
2023/05/19 09:37:59;;;;;;;14.20;9.70;;;;;;;;;;4989474;28;20434;-78
2023/05/19 09:40:26;;;;;;;10.13;8.70;;;;;;;;;;4993408;28;20022;-79
2023/05/19 09:42:52;;;;;;;11.00;9.88;;;;;;;;;;4999465;28;20316;-79
2023/05/19 09:45:18;;;;;;;11.88;10.25;;;;;;;;;;4990038;28;20006;-79
2023/05/19 09:47:44;;;;;;;10.30;9.30;;;;;;;;;;4993761;28;20104;-79
2023/05/19 09:50:09;;;;;;;9.40;8.63;;;;;;;;;;4992907;28;20565;-83
2023/05/19 09:52:35;;;;;;;13.70;10.25;;;;;;;;;;4992278;28;20288;-88
2023/05/19 09:55:03;;;;;;;11.05;9.18;;;;;;;;;;4993772;28;20067;-80
2023/05/19 09:57:32;;;;;;;14.05;9.93;;;;;;;;;;4998207;28;20033;-78
2023/05/19 09:59:58;;;;;;;11.63;9.25;;;;;;;;;;4994300;28;20057;-82
2023/05/19 10:02:25;;;;;;;10.38;9.38;;;;;;;;;;4994245;28;20022;-79
2023/05/19 10:04:51;;;;;;;9.80;8.57;;;;;;;;;;4998721;28;20085;-82
2023/05/19 10:07:18;;;;;;;9.88;8.98;;;;;;;;;;4997717;28;20570;-78
2023/05/19 10:09:43;;;;;;;12.95;10.48;;;;;;;;;;4998922;28;20437;-80
2023/05/19 10:12:09;;;;;;;10.13;9.18;;;;;;;;;;4998945;28;20014;-81
2023/05/19 10:14:35;;;;;;;10.90;8.65;;;;;;;;;;4998250;28;20120;-80
2023/05/19 10:17:00;;;;;;;11.57;9.17;;;;;;;;;;4999289;28;20715;-85
2023/05/19 10:19:26;;;;;;;11.50;9.70;;;;;;;;;;4999499;28;20267;-78
2023/05/19 10:21:51;;;;;;;20.85;10.07;;;;;;;;;;4999426;28;20257;-77
2023/05/19 10:24:17;;;;;;;9.55;8.65;;;;;;;;;;4998864;28;20041;-80
2023/05/19 10:26:57;;;;;;;9.93;9.02;;;;;;;;;;4999862;28;20411;-79
2023/05/19 10:29:27;;;;;;;9.70;8.30;;;;;;;;;;4999593;28;20040;-79
2023/05/19 10:31:54;;;;;;;10.07;9.07;;;;;;;;;;4999423;28;20021;-79
2023/05/19 10:34:20;;;;;;;12.80;9.23;;;;;;;;;;5013990;28;20037;-80
2023/05/19 10:36:54;;;;;;;9.93;9.13;;;;;;;;;;4999150;28;20030;-80
2023/05/19 10:39:24;;;;;;;11.05;9.75;;;;;;;;;;4999223;28;20026;-79
2023/05/19 10:42:00;;;;;;;10.88;9.68;;;;;;;;;;4999255;28;20524;-80
2023/05/19 10:44:26;;;;;;;11.05;9.98;;;;;;;;;;4997667;28;20543;-83
2023/05/19 10:46:51;;;;;;;12.17;9.23;;;;;;;;;;4997721;28;20032;-81
2023/05/19 10:49:20;;;;;;;9.50;8.57;;;;;;;;;;4998761;28;20675;-80
2023/05/19 10:51:45;;;;;;;14.95;9.90;;;;;;;;;;4999240;28;20359;-83
2023/05/19 10:54:14;;;;;;;19.65;12.18;;;;;;;;;;4998760;28;20520;-78
2023/05/19 10:56:41;;;;;;;23.90;13.45;;;;;;;;;;4998937;28;20026;-80
2023/05/19 10:59:07;;;;;;;16.77;12.95;;;;;;;;;;4999045;28;20030;-80
2023/05/19 11:01:33;;;;;;;23.03;12.93;;;;;;;;;;4998763;28;20021;-79
2023/05/19 11:04:12;;;;;;;14.65;11.77;;;;;;;;;;4997779;28;20253;-80
2023/05/19 11:06:39;;;;;;;20.80;12.32;;;;;;;;;;4997157;28;20022;-80
2023/05/19 11:09:07;;;;;;;17.75;13.05;;;;;;;;;;4997142;28;20357;-80
2023/05/19 11:11:49;;;;;;;15.63;12.83;;;;;;;;;;4997065;28;20818;-80
2023/05/19 11:14:19;;;;;;;19.98;13.52;;;;;;;;;;5000633;28;20531;-83
2023/05/19 11:16:48;;;;;;;10.05;8.88;;;;;;;;;;5008172;28;20421;-80
2023/05/19 11:19:18;;;;;;;14.65;7.97;;;;;;;;;;5024783;28;20033;-78
2023/05/19 11:21:56;;;;;;;9.23;8.20;;;;;;;;;;5020625;28;20030;-77
2023/05/19 11:24:39;;;;;;;13.10;7.93;;;;;;;;;;5006150;28;20895;-78
2023/05/19 11:27:25;;;;;;;13.30;7.47;;;;;;;;;;5002030;28;20026;-78
2023/05/19 11:29:51;;;;;;;8.95;7.28;;;;;;;;;;5012220;28;20025;-79
2023/05/19 11:32:16;;;;;;;12.85;8.02;;;;;;;;;;5026272;28;20029;-78
2023/05/19 11:34:43;;;;;;;8.85;7.88;;;;;;;;;;5019406;28;20109;-80
2023/05/19 11:37:19;;;;;;;10.02;8.45;;;;;;;;;;5020207;28;20183;-79
2023/05/19 11:39:46;;;;;;;7.75;6.97;;;;;;;;;;5013612;28;20030;-79
2023/05/19 11:42:11;;;;;;;9.05;7.10;;;;;;;;;;5012214;28;20476;-77
2023/05/19 11:44:37;;;;;;;8.60;7.30;;;;;;;;;;5010712;28;20144;-77
2023/05/19 11:47:03;;;;;;;8.73;7.93;;;;;;;;;;5019817;28;20013;-78
2023/05/19 11:49:28;;;;;;;9.23;7.00;;;;;;;;;;5014810;28;20006;-77
2023/05/19 11:51:53;;;;;;;8.15;7.55;;;;;;;;;;5014880;28;20026;-78
2023/05/19 11:54:19;;;;;;;12.45;7.90;;;;;;;;;;5015491;28;20026;-80
2023/05/19 11:56:44;;;;;;;9.55;7.38;;;;;;;;;;5008367;28;20034;-77
2023/05/19 11:59:10;;;;;;;9.73;8.73;;;;;;;;;;5008790;28;20105;-81
2023/05/19 12:01:35;;;;;;;10.40;8.50;;;;;;;;;;5004676;28;20495;-79
2023/05/19 12:04:01;;;;;;;12.90;8.48;;;;;;;;;;5005620;28;20018;-79
2023/05/19 12:06:27;;;;;;;8.43;7.63;;;;;;;;;;5006651;28;20443;-78
2023/05/19 12:08:55;;;;;;;8.95;8.00;;;;;;;;;;5003533;28;20431;-77
2023/05/19 12:11:21;;;;;;;9.45;7.65;;;;;;;;;;4995931;28;20068;-80
2023/05/19 12:13:47;;;;;;;8.70;7.85;;;;;;;;;;4993720;28;20483;-78
2023/05/19 12:16:12;;;;;;;9.02;7.57;;;;;;;;;;5000399;28;20021;-83
2023/05/19 12:18:39;;;;;;;8.63;7.93;;;;;;;;;;4992918;28;20544;-80
2023/05/19 12:21:04;;;;;;;8.52;7.72;;;;;;;;;;4996187;28;20125;-78
2023/05/19 12:23:30;;;;;;;9.02;7.75;;;;;;;;;;5000490;28;20116;-77
2023/05/19 12:25:57;;;;;;;15.85;8.07;;;;;;;;;;5001543;28;20022;-77
2023/05/19 12:28:22;;;;;;;17.52;8.02;;;;;;;;;;5001906;28;20105;-76
2023/05/19 12:30:50;;;;;;;7.60;7.00;;;;;;;;;;4997885;28;20124;-78
2023/05/19 12:33:16;;;;;;;7.65;6.95;;;;;;;;;;4996351;28;20055;-89
2023/05/19 12:35:41;;;;;;;7.53;6.85;;;;;;;;;;4991167;28;20493;-75
2023/05/19 12:38:07;;;;;;;7.90;7.10;;;;;;;;;;4983241;28;20029;-79
2023/05/19 12:40:33;;;;;;;9.68;7.30;;;;;;;;;;4995502;28;20804;-76
2023/05/19 12:42:58;;;;;;;8.10;7.32;;;;;;;;;;4996474;28;20561;-77
2023/05/19 12:45:26;;;;;;;7.68;7.07;;;;;;;;;;4990023;28;20031;-77
2023/05/19 12:47:52;;;;;;;8.80;7.82;;;;;;;;;;4999820;28;20104;-76
2023/05/19 12:50:17;;;;;;;8.15;7.50;;;;;;;;;;5002891;28;20117;-76
2023/05/19 12:52:44;;;;;;;8.00;7.38;;;;;;;;;;5006302;28;20014;-75
2023/05/19 12:55:10;;;;;;;7.75;7.13;;;;;;;;;;5002882;28;20404;-76
2023/05/19 12:57:37;;;;;;;8.88;7.53;;;;;;;;;;5002304;28;20092;-77
2023/05/19 13:00:06;;;;;;;7.30;6.60;;;;;;;;;;5002355;28;20488;-76
2023/05/19 13:02:35;;;;;;;7.50;6.78;;;;;;;;;;5002423;28;20037;-76
2023/05/19 13:05:01;;;;;;;7.15;6.47;;;;;;;;;;5002482;28;20052;-76
2023/05/19 13:07:26;;;;;;;8.13;7.35;;;;;;;;;;5002039;28;20022;-79
2023/05/19 13:09:51;;;;;;;9.55;6.93;;;;;;;;;;4993782;28;20100;-78
2023/05/19 13:12:17;;;;;;;13.63;7.63;;;;;;;;;;5002418;28;20084;-76
2023/05/19 13:14:43;;;;;;;7.72;7.03;;;;;;;;;;5002142;28;20068;-77
2023/05/19 13:17:08;;;;;;;7.45;6.85;;;;;;;;;;4997752;28;20026;-85
2023/05/19 13:19:34;;;;;;;8.45;6.82;;;;;;;;;;5002327;28;20108;-77
2023/05/19 13:21:59;;;;;;;8.02;7.15;;;;;;;;;;4990164;28;21075;-77
2023/05/19 13:24:25;;;;;;;7.50;6.80;;;;;;;;;;5000421;28;20065;-78
2023/05/19 13:26:50;;;;;;;7.60;7.00;;;;;;;;;;5001973;28;20256;-80
2023/05/19 13:29:15;;;;;;;7.68;6.97;;;;;;;;;;5002061;28;20053;-80
2023/05/19 13:31:41;;;;;;;6.53;5.93;;;;;;;;;;5000607;28;20026;-77
2023/05/19 13:34:06;;;;;;;7.88;6.82;;;;;;;;;;5001685;28;20017;-78
2023/05/19 13:36:33;;;;;;;7.50;6.90;;;;;;;;;;4999321;28;20159;-80
2023/05/19 13:38:59;;;;;;;7.97;7.22;;;;;;;;;;4999964;28;20028;-80
2023/05/19 13:41:25;;;;;;;7.72;6.97;;;;;;;;;;5001359;28;20013;-80
2023/05/19 13:43:50;;;;;;;7.65;7.05;;;;;;;;;;5001500;28;20424;-79
2023/05/19 13:46:16;;;;;;;8.10;7.40;;;;;;;;;;4996293;28;20029;-79
2023/05/19 13:48:41;;;;;;;9.27;7.50;;;;;;;;;;4997453;28;20018;-80
2023/05/19 13:51:06;;;;;;;7.70;7.00;;;;;;;;;;4996638;28;20045;-79
2023/05/19 13:53:33;;;;;;;7.10;6.60;;;;;;;;;;4996099;28;20281;-79
2023/05/19 13:55:59;;;;;;;8.18;6.85;;;;;;;;;;4993546;28;20463;-78
2023/05/19 13:58:25;;;;;;;7.95;7.28;;;;;;;;;;4994740;28;20108;-79
2023/05/19 14:00:53;;;;;;;7.45;6.85;;;;;;;;;;4993433;28;21566;-79
2023/05/19 14:03:18;;;;;;;8.00;7.20;;;;;;;;;;4993540;28;20014;-78
2023/05/19 14:05:44;;;;;;;7.43;6.82;;;;;;;;;;4994778;28;20220;-79
2023/05/19 14:08:10;;;;;;;8.70;7.78;;;;;;;;;;4998423;28;20488;-78
2023/05/19 14:10:35;;;;;;;9.82;7.90;;;;;;;;;;4999143;28;20034;-76
2023/05/19 14:13:00;;;;;;;8.55;7.85;;;;;;;;;;4994408;28;20018;-76
2023/05/19 14:15:26;;;;;;;9.40;8.48;;;;;;;;;;5000835;28;20033;-77
2023/05/19 14:17:55;;;;;;;9.18;8.38;;;;;;;;;;4998369;28;20017;-78
2023/05/19 14:20:20;;;;;;;9.18;8.27;;;;;;;;;;4998055;28;20022;-77
2023/05/19 14:22:46;;;;;;;10.40;8.88;;;;;;;;;;5000567;28;20026;-81
2023/05/19 14:25:11;;;;;;;7.15;6.55;;;;;;;;;;5000421;28;20026;-80
2023/05/19 14:27:38;;;;;;;8.55;7.75;;;;;;;;;;5000881;28;20109;-82
2023/05/19 14:30:04;;;;;;;8.13;7.53;;;;;;;;;;4998756;28;20832;-83
2023/05/19 14:32:29;;;;;;;10.70;7.70;;;;;;;;;;4999212;28;20029;-81
2023/05/19 14:34:54;;;;;;;8.52;7.40;;;;;;;;;;4991291;28;20030;-79
2023/05/19 14:37:19;;;;;;;8.93;8.13;;;;;;;;;;4995940;28;20030;-81
2023/05/19 14:39:45;;;;;;;8.40;7.47;;;;;;;;;;5000533;28;20036;-79
2023/05/19 14:42:10;;;;;;;24.53;8.13;;;;;;;;;;4998705;28;20269;-79
2023/05/19 14:44:36;;;;;;;8.43;7.63;;;;;;;;;;4998716;28;20691;-78
2023/05/19 14:47:01;;;;;;;7.85;7.22;;;;;;;;;;4998662;28;20275;-78
2023/05/19 14:49:27;;;;;;;7.72;6.95;;;;;;;;;;5000132;28;20025;-79
2023/05/19 14:51:52;;;;;;;8.35;7.45;;;;;;;;;;4992941;28;20904;-81
2023/05/19 14:54:17;;;;;;;8.45;7.47;;;;;;;;;;4995935;28;20021;-80
2023/05/19 14:56:43;;;;;;;9.02;7.95;;;;;;;;;;4998036;28;20022;-80
2023/05/19 14:59:08;;;;;;;8.00;7.30;;;;;;;;;;4997491;28;20022;-80
2023/05/19 15:01:33;;;;;;;8.35;7.38;;;;;;;;;;5000328;28;20018;-79
2023/05/19 15:03:59;;;;;;;8.23;7.53;;;;;;;;;;5000909;28;20026;-81
2023/05/19 15:06:24;;;;;;;10.00;7.53;;;;;;;;;;4998886;28;20052;-82
2023/05/19 15:08:49;;;;;;;9.15;7.32;;;;;;;;;;4998921;28;20478;-81
2023/05/19 15:11:15;;;;;;;8.13;7.32;;;;;;;;;;4999980;28;20034;-81
2023/05/19 15:13:40;;;;;;;8.10;7.30;;;;;;;;;;4984942;28;20062;-80
2023/05/19 15:16:09;;;;;;;8.30;7.40;;;;;;;;;;4998835;28;20080;-81
2023/05/19 15:18:35;;;;;;;8.75;7.90;;;;;;;;;;4998879;28;20790;-81
2023/05/19 15:21:00;;;;;;;8.00;7.38;;;;;;;;;;4996984;28;20126;-81
2023/05/19 15:23:25;;;;;;;8.00;7.30;;;;;;;;;;5000087;28;20026;-80
2023/05/19 15:25:51;;;;;;;7.85;7.05;;;;;;;;;;5000071;28;20490;-81
2023/05/19 15:28:18;;;;;;;8.02;7.32;;;;;;;;;;5000399;28;20488;-81
2023/05/19 15:30:44;;;;;;;8.10;7.47;;;;;;;;;;5000192;28;20657;-81
2023/05/19 15:33:10;;;;;;;9.90;7.72;;;;;;;;;;4999866;28;20108;-81
2023/05/19 15:35:35;;;;;;;8.00;7.20;;;;;;;;;;4998777;28;20022;-80
2023/05/19 15:38:04;;;;;;;8.50;7.70;;;;;;;;;;5000170;28;20076;-82
2023/05/19 15:40:30;;;;;;;;;;;;;;;;;;5000372;28;20097;-81
2023/05/19 15:42:55;;;;;;;9.05;7.93;;;;;;;;;;4999701;28;20020;-81
2023/05/19 15:45:20;;;;;;;9.63;7.17;;;;;;;;;;4998937;28;20100;-80
2023/05/19 15:47:47;;;;;;;8.02;7.32;;;;;;;;;;4998387;28;20256;-80
2023/05/19 15:50:12;;;;;;;11.88;8.02;;;;;;;;;;4991562;28;20030;-80
2023/05/19 15:52:37;;;;;;;8.97;8.03;;;;;;;;;;5013396;28;20041;-79
2023/05/19 15:55:03;;;;;;;8.32;7.45;;;;;;;;;;4999593;28;20276;-80
2023/05/19 15:57:28;;;;;;;8.10;7.40;;;;;;;;;;4988671;28;20026;-78
2023/05/19 15:59:53;;;;;;;7.60;6.73;;;;;;;;;;4996183;28;20400;-79
2023/05/19 16:02:18;;;;;;;10.07;7.53;;;;;;;;;;5001781;28;20260;-81
2023/05/19 16:04:44;;;;;;;9.15;7.93;;;;;;;;;;5000176;28;20269;-82
2023/05/19 16:07:09;;;;;;;9.00;7.53;;;;;;;;;;5000944;28;20404;-82
2023/05/19 16:09:35;;;;;;;8.20;7.47;;;;;;;;;;4993353;28;20057;-80
2023/05/19 16:12:00;;;;;;;8.50;7.70;;;;;;;;;;4988594;28;20048;-80
2023/05/19 16:14:29;;;;;;;8.63;7.60;;;;;;;;;;4991467;28;20083;-79
2023/05/19 16:16:55;;;;;;;9.18;8.32;;;;;;;;;;4992768;28;20312;-82
2023/05/19 16:19:22;;;;;;;8.60;7.90;;;;;;;;;;5014529;28;20049;-79
2023/05/19 16:21:47;;;;;;;8.40;6.75;;;;;;;;;;5001625;28;20470;-83
2023/05/19 16:24:13;;;;;;;9.18;5.78;;;;;;;;;;5000623;28;20102;-80
2023/05/19 16:26:38;;;;;;;9.13;6.03;;;;;;;;;;4992496;28;20097;-83
2023/05/19 16:29:03;;;;;;;6.75;6.18;;;;;;;;;;5012260;28;20026;-82
2023/05/19 16:31:29;;;;;;;9.25;6.97;;;;;;;;;;5006109;28;20072;-82
2023/05/19 16:33:54;;;;;;;6.80;6.20;;;;;;;;;;4992964;28;20109;-82
2023/05/19 16:36:21;;;;;;;7.03;6.40;;;;;;;;;;4994868;28;20264;-82
2023/05/19 16:38:46;;;;;;;6.53;5.93;;;;;;;;;;5001189;28;20025;-82
2023/05/19 16:41:12;;;;;;;6.47;5.93;;;;;;;;;;5001309;28;20014;-82
2023/05/19 16:43:37;;;;;;;8.43;6.10;;;;;;;;;;5001154;28;20030;-81
2023/05/19 16:46:03;;;;;;;6.47;5.87;;;;;;;;;;5001162;28;20782;-81
2023/05/19 16:48:29;;;;;;;6.50;5.85;;;;;;;;;;5001050;28;20271;-81
2023/05/19 16:50:54;;;;;;;6.68;6.13;;;;;;;;;;5002673;28;20041;-81
2023/05/19 16:53:20;;;;;;;8.13;6.90;;;;;;;;;;5002492;28;20049;-81
2023/05/19 16:55:45;;;;;;;8.05;6.80;;;;;;;;;;5000961;28;20013;-81
2023/05/19 16:58:11;;;;;;;11.45;8.05;;;;;;;;;;4999199;28;20472;-79
2023/05/19 17:00:36;;;;;;;11.35;6.63;;;;;;;;;;4992220;28;20551;-80
2023/05/19 17:03:02;;;;;;;6.85;5.90;;;;;;;;;;4993919;28;20030;-81
2023/05/19 17:05:27;;;;;;;33.75;23.17;;;;;;;;;;4997757;28;20725;-81
2023/05/19 17:07:53;;;;;;;10.38;8.38;;;;;;;;;;5017336;28;20061;-80
2023/05/19 17:10:18;;;;;;;6.20;5.37;;;;;;;;;;4996400;28;20437;-80
2023/05/19 17:12:43;;;;;;;13.27;10.57;;;;;;;;;;4998023;28;20281;-79
2023/05/19 17:15:09;;;;;;;7.63;7.03;;;;;;;;;;4999232;28;20713;-80
2023/05/19 17:17:35;;;;;;;7.40;6.18;;;;;;;;;;4994639;28;20269;-81
2023/05/19 17:20:00;;;;;;;11.90;8.13;;;;;;;;;;4994069;28;20010;-80
2023/05/19 17:22:25;;;;;;;6.83;6.10;;;;;;;;;;4987955;28;20022;-80
2023/05/19 17:24:51;;;;;;;6.93;6.43;;;;;;;;;;4998959;28;20268;-80
2023/05/19 17:27:16;;;;;;;8.18;7.38;;;;;;;;;;4998831;28;20080;-81
2023/05/19 17:29:41;;;;;;;9.60;8.70;;;;;;;;;;4998447;28;20113;-79
2023/05/19 17:32:06;;;;;;;10.73;8.60;;;;;;;;;;5000281;28;20264;-80
2023/05/19 17:34:32;;;;;;;9.93;8.93;;;;;;;;;;5000281;28;20789;-78
2023/05/19 17:36:57;;;;;;;9.97;8.37;;;;;;;;;;5000187;28;20292;-79
2023/05/19 17:39:23;;;;;;;9.88;8.95;;;;;;;;;;4982265;28;20310;-79
2023/05/19 17:41:48;;;;;;;19.90;14.63;;;;;;;;;;4999757;28;20451;-80
2023/05/19 17:44:13;;;;;;;25.30;19.27;;;;;;;;;;5000449;28;20034;-79
2023/05/19 17:46:39;;;;;;;58.70;31.73;;;;;;;;;;4999675;28;20283;-79
2023/05/19 17:49:05;;;;;;;40.90;23.43;;;;;;;;;;4998795;28;20411;-79
2023/05/19 17:51:30;;;;;;;19.55;15.13;;;;;;;;;;5014794;28;20324;-78
2023/05/19 17:53:56;;;;;;;15.27;13.68;;;;;;;;;;4999215;28;20063;-80
2023/05/19 17:56:23;;;;;;;16.27;12.55;;;;;;;;;;4999707;28;20428;-76
2023/05/19 17:58:48;;;;;;;12.75;8.30;;;;;;;;;;4999404;28;20041;-79
2023/05/19 18:01:14;;;;;;;8.68;7.65;;;;;;;;;;4999729;28;20022;-80
2023/05/19 18:03:40;;;;;;;10.02;7.65;;;;;;;;;;4999707;28;20049;-80
2023/05/19 18:06:05;;;;;;;9.65;8.85;;;;;;;;;;4998279;28;20366;-81
2023/05/19 18:08:31;;;;;;;10.35;8.50;;;;;;;;;;4998156;28;20050;-81
2023/05/19 18:10:56;;;;;;;11.93;8.57;;;;;;;;;;4998180;28;20024;-86
2023/05/19 18:13:22;;;;;;;11.63;8.40;;;;;;;;;;4999605;28;20108;-80
2023/05/19 18:15:47;;;;;;;11.68;7.93;;;;;;;;;;4999679;28;20022;-77
2023/05/19 18:18:13;;;;;;;17.05;7.65;;;;;;;;;;5002074;28;20004;-80
2023/05/19 18:20:43;;;;;;;9.05;7.90;;;;;;;;;;5003361;28;20410;-78
2023/05/19 18:23:08;;;;;;;14.07;8.02;;;;;;;;;;4993241;28;20037;-80
2023/05/19 18:25:34;;;;;;;11.52;7.95;;;;;;;;;;5002197;28;20832;-85
2023/05/19 18:27:59;;;;;;;9.32;8.43;;;;;;;;;;5001572;28;20018;-82
2023/05/19 18:30:24;;;;;;;11.45;9.13;;;;;;;;;;5002368;28;20479;-81
2023/05/19 18:32:49;;;;;;;9.80;8.70;;;;;;;;;;5013892;28;20086;-80
2023/05/19 18:35:15;;;;;;;10.87;8.30;;;;;;;;;;5000855;28;20276;-75
2023/05/19 18:37:40;;;;;;;8.95;8.15;;;;;;;;;;5001125;28;20857;-76
2023/05/19 18:40:06;;;;;;;10.75;7.32;;;;;;;;;;4997397;28;20080;-77
2023/05/19 18:42:31;;;;;;;12.27;6.70;;;;;;;;;;4996488;28;20029;-78
2023/05/19 18:44:56;;;;;;;11.27;6.93;;;;;;;;;;4997341;28;20045;-79
2023/05/19 18:47:22;;;;;;;8.17;7.30;;;;;;;;;;5001200;28;20014;-80
2023/05/19 18:49:47;;;;;;;9.57;7.70;;;;;;;;;;4996921;28;20276;-80
2023/05/19 18:52:13;;;;;;;8.55;7.13;;;;;;;;;;4993209;28;20021;-78
2023/05/19 18:54:41;;;;;;;10.65;7.70;;;;;;;;;;4995400;28;20030;-78
2023/05/19 18:57:06;;;;;;;7.88;7.10;;;;;;;;;;4999429;28;20033;-77
2023/05/19 18:59:31;;;;;;;8.50;7.55;;;;;;;;;;5000167;28;20247;-77
2023/05/19 19:01:57;;;;;;;13.95;9.93;;;;;;;;;;5001244;28;20022;-76
2023/05/19 19:04:22;;;;;;;15.82;9.57;;;;;;;;;;5006878;28;20071;-81
2023/05/19 19:06:51;;;;;;;12.35;8.93;;;;;;;;;;5007863;28;20395;-79
2023/05/19 19:09:16;;;;;;;25.25;12.63;;;;;;;;;;4996355;28;20439;-77
2023/05/19 19:11:41;;;;;;;17.30;10.00;;;;;;;;;;5006636;28;20041;-77